Time;durP1;ratioP1;P1;durP2;ratioP2;P2;SDS_P1;SDS_P2;PMS_P1;PMS_P2;Temp;Humidity;BMP_temperature;BMP_pressure;BME280_temperature;BME280_humidity;BME280_pressure;Samples;Min_cycle;Max_cycle;Signal;HPM_P1;HPM_P2
2022/05/04 00:01:09;;;;;;;3.60;2.67;;;;;;;10.39;98.64;95797.16;5024874;28;20449;-59
2022/05/04 00:03:40;;;;;;;3.05;2.85;;;;;;;10.38;99.29;95793.69;5027240;28;20037;-59
2022/05/04 00:06:06;;;;;;;3.30;3.10;;;;;;;10.48;98.42;95798.97;5025891;28;20105;-59
2022/05/04 00:08:32;;;;;;;3.60;3.33;;;;;;;10.37;99.51;95799.91;5020744;28;20037;-59
2022/05/04 00:10:57;;;;;;;3.40;3.20;;;;;;;10.28;100.00;95801.59;5027955;28;20026;-60
2022/05/04 00:13:23;;;;;;;3.60;3.33;;;;;;;10.27;100.00;95799.09;5026137;28;20021;-59
2022/05/04 00:15:48;;;;;;;3.65;3.35;;;;;;;10.25;100.00;95801.84;5028618;28;20480;-59
2022/05/04 00:18:14;;;;;;;3.60;3.40;;;;;;;10.28;99.28;95800.75;5022883;28;20405;-60
2022/05/04 00:20:39;;;;;;;3.38;3.20;;;;;;;10.28;99.63;95793.72;5024634;28;20033;-60
2022/05/04 00:23:05;;;;;;;5.20;3.28;;;;;;;10.22;100.00;95803.94;5024641;28;20037;-59
2022/05/04 00:25:30;;;;;;;3.47;3.25;;;;;;;10.13;100.00;95802.97;5026036;28;20036;-60
2022/05/04 00:27:55;;;;;;;3.72;3.53;;;;;;;10.06;100.00;95799.19;5029026;28;20025;-59
2022/05/04 00:30:21;;;;;;;3.80;3.60;;;;;;;10.02;100.00;95796.84;5027354;28;20036;-59
2022/05/04 00:32:47;;;;;;;4.50;3.25;;;;;;;10.02;100.00;95796.03;5027469;28;20014;-59
2022/05/04 00:35:12;;;;;;;3.40;3.20;;;;;;;10.00;100.00;95801.41;5021014;28;20021;-59
2022/05/04 00:37:38;;;;;;;6.80;2.95;;;;;;;9.99;100.00;95791.84;5026238;28;20021;-59
2022/05/04 00:40:04;;;;;;;4.03;3.72;;;;;;;10.03;100.00;95792.41;5029751;28;20049;-60
2022/05/04 00:42:29;;;;;;;7.38;3.50;;;;;;;10.04;100.00;95791.47;5021167;28;20481;-59
2022/05/04 00:44:54;;;;;;;3.65;3.33;;;;;;;10.01;100.00;95797.00;5020942;28;20030;-60
2022/05/04 00:47:20;;;;;;;3.65;3.45;;;;;;;10.02;100.00;95791.56;5022584;28;20034;-59
2022/05/04 00:49:48;;;;;;;3.33;3.13;;;;;;;10.06;100.00;95791.31;5026745;28;20025;-59
2022/05/04 00:52:15;;;;;;;3.78;3.47;;;;;;;10.04;100.00;95802.78;5017653;28;20033;-59
2022/05/04 00:54:48;;;;;;;3.63;3.42;;;;;;;10.07;100.00;95793.81;5031550;28;20056;-59
2022/05/04 00:57:14;;;;;;;3.50;3.30;;;;;;;10.06;100.00;95796.56;5023948;28;20025;-59
2022/05/04 00:59:41;;;;;;;3.58;3.38;;;;;;;10.00;100.00;95803.22;5025127;28;20520;-59
2022/05/04 01:02:07;;;;;;;3.80;3.50;;;;;;;9.97;100.00;95799.06;5025543;28;20033;-59
2022/05/04 01:04:33;;;;;;;4.03;3.72;;;;;;;9.98;100.00;95794.63;5017486;28;20695;-59
2022/05/04 01:06:58;;;;;;;3.85;3.65;;;;;;;10.04;100.00;95797.53;5026308;28;20153;-60
2022/05/04 01:09:24;;;;;;;4.07;3.78;;;;;;;10.06;100.00;95799.19;5031949;28;20022;-59
2022/05/04 01:11:49;;;;;;;3.53;3.33;;;;;;;10.07;100.00;95793.81;5025627;28;20033;-59
2022/05/04 01:14:16;;;;;;;3.72;3.35;;;;;;;10.06;100.00;95788.66;5024129;28;20393;-59
2022/05/04 01:16:45;;;;;;;3.30;3.10;;;;;;;10.02;100.00;95791.56;5018657;28;20034;-59
2022/05/04 01:19:11;;;;;;;2.90;2.80;;;;;;;10.00;100.00;95793.50;5023980;28;20040;-58
2022/05/04 01:21:37;;;;;;;3.75;3.47;;;;;;;9.98;100.00;95784.13;5022776;28;20025;-59
2022/05/04 01:24:03;;;;;;;3.33;3.13;;;;;;;9.97;99.88;95791.16;5021156;28;20037;-60
2022/05/04 01:26:29;;;;;;;3.05;2.95;;;;;;;9.97;100.00;95783.28;5025712;28;20029;-60
2022/05/04 01:28:55;;;;;;;3.10;2.90;;;;;;;10.02;99.78;95791.56;5018640;28;20044;-59
2022/05/04 01:31:20;;;;;;;3.35;2.63;;;;;;;10.00;99.97;95788.25;5024973;28;20113;-60
2022/05/04 01:33:46;;;;;;;3.10;2.80;;;;;;;10.01;100.00;95789.91;5023131;28;20025;-60
2022/05/04 01:36:11;;;;;;;2.88;2.78;;;;;;;10.02;99.67;95786.31;5023462;28;20033;-60
2022/05/04 01:38:36;;;;;;;3.10;2.90;;;;;;;9.91;100.00;95785.59;5028248;28;20492;-60
2022/05/04 01:41:03;;;;;;;3.28;3.08;;;;;;;9.89;100.00;95783.94;5027750;28;20083;-59
2022/05/04 01:43:29;;;;;;;3.63;3.42;;;;;;;9.94;100.00;95783.53;5022393;28;20034;-59
2022/05/04 01:45:54;;;;;;;3.65;3.35;;;;;;;9.88;99.97;95789.34;5020888;28;20095;-59
2022/05/04 01:48:20;;;;;;;3.13;2.83;;;;;;;9.84;100.00;95787.97;5024952;28;20451;-59
2022/05/04 01:50:46;;;;;;;4.50;3.10;;;;;;;9.88;100.00;95790.16;5025300;28;20043;-60
2022/05/04 01:53:11;;;;;;;3.88;3.60;;;;;;;9.88;100.00;95795.44;5024884;28;20049;-59
2022/05/04 01:55:37;;;;;;;3.17;2.97;;;;;;;9.84;100.00;95793.22;5028965;28;20083;-59
2022/05/04 01:58:04;;;;;;;4.20;3.00;;;;;;;10.04;98.64;95802.78;5026257;28;20041;-59
2022/05/04 02:00:30;;;;;;;3.75;3.40;;;;;;;9.97;99.35;95804.31;5020692;28;20377;-59
2022/05/04 02:02:55;;;;;;;3.25;3.13;;;;;;;10.22;98.65;95802.13;5028758;28;20053;-59
2022/05/04 02:05:21;;;;;;;3.50;3.10;;;;;;;10.12;97.75;95803.94;5024089;28;20077;-63
2022/05/04 02:07:48;;;;;;;3.15;3.00;;;;;;;9.98;99.29;95799.91;5018308;28;20021;-59
2022/05/04 02:10:14;;;;;;;3.55;2.97;;;;;;;9.92;99.57;95806.53;5023025;28;20041;-59
2022/05/04 02:12:39;;;;;;;3.80;3.60;;;;;;;9.88;100.00;95803.31;5025184;28;20033;-59
2022/05/04 02:15:08;;;;;;;4.18;3.08;;;;;;;9.81;100.00;95798.72;5023157;28;20537;-59
2022/05/04 02:17:34;;;;;;;3.53;3.28;;;;;;;9.82;100.00;95805.66;5023757;28;20040;-60
2022/05/04 02:19:59;;;;;;;4.32;3.50;;;;;;;9.83;100.00;95799.41;5025678;28;20037;-59
2022/05/04 02:22:25;;;;;;;5.00;3.72;;;;;;;9.82;100.00;95803.03;5023075;28;20408;-59
2022/05/04 02:24:51;;;;;;;3.88;3.60;;;;;;;9.83;100.00;95807.31;5022758;28;20113;-59
2022/05/04 02:27:16;;;;;;;3.28;3.08;;;;;;;9.83;100.00;95799.41;5020040;28;20412;-59
2022/05/04 02:29:42;;;;;;;4.05;3.28;;;;;;;9.88;100.00;95805.94;5022388;28;20029;-59
2022/05/04 02:32:08;;;;;;;3.50;3.30;;;;;;;9.90;100.00;95803.19;5023071;28;20029;-59
2022/05/04 02:34:33;;;;;;;3.08;2.97;;;;;;;9.89;100.00;95799.72;5023656;28;20033;-59
2022/05/04 02:39:43;;;;;;;3.63;3.10;;;;;;;9.86;99.37;95799.19;5023468;28;20044;-60
2022/05/04 02:42:08;;;;;;;3.45;3.25;;;;;;;9.88;99.39;95800.69;5016299;28;20041;-59
2022/05/04 02:44:33;;;;;;;4.57;3.70;;;;;;;9.82;100.00;95803.03;5026157;28;20029;-60
2022/05/04 02:46:59;;;;;;;3.38;3.08;;;;;;;9.81;100.00;95793.47;5023291;28;20026;-60
2022/05/04 02:49:24;;;;;;;3.13;3.03;;;;;;;9.71;100.00;95794.28;5026643;28;20030;-60
2022/05/04 02:51:50;;;;;;;4.20;3.90;;;;;;;9.68;100.00;95791.09;5021860;28;20033;-60
2022/05/04 02:54:15;;;;;;;3.60;3.40;;;;;;;9.66;100.00;95801.75;5022445;28;20108;-60
2022/05/04 02:56:41;;;;;;;4.50;3.63;;;;;;;9.70;100.00;95797.03;5024919;28;20037;-60
2022/05/04 02:59:06;;;;;;;4.07;3.78;;;;;;;9.73;100.00;95786.28;5022754;28;20673;-59
2022/05/04 03:04:16;;;;;;;3.20;3.00;;;;;;;9.76;100.00;95791.25;5024738;28;20040;-59
2022/05/04 03:06:41;;;;;;;3.60;3.40;;;;;;;9.70;100.00;95792.63;5024514;28;20030;-59
2022/05/04 03:09:09;;;;;;;3.50;3.20;;;;;;;9.66;100.00;95791.25;5023328;28;20039;-60
2022/05/04 03:14:20;;;;;;;3.15;3.03;;;;;;;9.67;100.00;95786.78;5018465;28;20060;-60
2022/05/04 03:16:49;;;;;;;3.35;3.15;;;;;;;9.68;100.00;95793.72;5022125;28;20068;-60
2022/05/04 03:19:15;;;;;;;3.28;3.08;;;;;;;9.73;100.00;95797.63;5024894;28;20087;-59
2022/05/04 03:21:41;;;;;;;3.38;3.25;;;;;;;9.77;100.00;95792.09;5015956;28;20034;-60
2022/05/04 03:24:07;;;;;;;3.30;3.10;;;;;;;9.72;100.00;95789.84;5020898;28;20034;-60
2022/05/04 03:26:32;;;;;;;6.68;3.35;;;;;;;9.74;100.00;95786.13;5021520;28;20026;-60
2022/05/04 03:28:58;;;;;;;3.45;3.25;;;;;;;9.66;100.00;95785.13;5016961;28;20045;-60
2022/05/04 03:31:23;;;;;;;3.55;3.28;;;;;;;9.62;100.00;95795.09;5023397;28;20028;-59
2022/05/04 03:33:49;;;;;;;3.40;3.20;;;;;;;9.58;100.00;95793.69;5023019;28;20018;-59
2022/05/04 03:36:15;;;;;;;4.07;3.78;;;;;;;9.55;100.00;95804.47;5021669;28;20108;-60
2022/05/04 03:38:40;;;;;;;4.00;3.67;;;;;;;9.56;100.00;95795.63;5016426;28;20177;-60
2022/05/04 03:41:06;;;;;;;3.80;3.50;;;;;;;9.59;100.00;95792.72;5019881;28;20033;-60
2022/05/04 03:43:31;;;;;;;3.60;3.40;;;;;;;9.62;100.00;95792.47;5021817;28;20026;-60
2022/05/04 03:46:18;;;;;;;4.03;3.75;;;;;;;9.62;100.00;95794.25;5022151;28;20105;-59
2022/05/04 03:48:45;;;;;;;3.85;3.40;;;;;;;9.66;100.00;95800.91;5024752;28;20056;-59
2022/05/04 03:51:10;;;;;;;3.88;3.58;;;;;;;9.63;100.00;95802.03;5021038;28;20029;-59
2022/05/04 03:53:36;;;;;;;3.67;3.47;;;;;;;9.59;100.00;95797.97;5025781;28;20030;-60
2022/05/04 03:56:02;;;;;;;3.60;3.30;;;;;;;9.62;100.00;95799.50;5021457;28;20037;-60
2022/05/04 03:58:28;;;;;;;3.42;3.22;;;;;;;9.61;100.00;95798.66;5010397;28;20078;-59
2022/05/04 04:00:53;;;;;;;3.80;3.45;;;;;;;9.63;100.00;95799.41;5020951;28;20117;-59
2022/05/04 04:03:18;;;;;;;3.60;3.35;;;;;;;9.61;100.00;95796.03;5023969;28;20041;-60
2022/05/04 04:05:44;;;;;;;3.80;3.50;;;;;;;9.66;100.00;95791.25;5021636;28;20041;-60
2022/05/04 04:08:09;;;;;;;3.67;3.38;;;;;;;9.63;100.00;95783.63;5019521;28;20030;-60
2022/05/04 04:10:34;;;;;;;4.80;3.22;;;;;;;9.59;100.00;95782.19;5021799;28;20035;-60
2022/05/04 04:13:00;;;;;;;4.07;3.88;;;;;;;9.53;100.00;95788.00;5022113;28;20053;-60
2022/05/04 04:15:25;;;;;;;4.20;3.85;;;;;;;9.48;100.00;95787.56;5019072;28;20034;-60
2022/05/04 04:17:50;;;;;;;4.05;3.80;;;;;;;9.43;100.00;95785.34;5017605;28;20127;-60
2022/05/04 04:23:01;;;;;;;3.83;3.53;;;;;;;9.42;100.00;95791.56;5015366;28;20037;-60
2022/05/04 04:25:26;;;;;;;4.75;3.55;;;;;;;9.42;100.00;95787.16;5028016;28;20026;-59
2022/05/04 04:27:51;;;;;;;3.63;3.40;;;;;;;9.49;100.00;95789.22;5019618;28;20049;-59
2022/05/04 04:30:17;;;;;;;3.85;3.55;;;;;;;9.56;100.00;95783.31;5023198;28;20034;-60
2022/05/04 04:32:42;;;;;;;4.22;3.17;;;;;;;9.59;100.00;95792.72;5020884;28;20133;-60
2022/05/04 04:35:08;;;;;;;3.78;3.47;;;;;;;9.64;100.00;95787.91;5016369;28;20087;-60
2022/05/04 04:37:33;;;;;;;3.83;3.63;;;;;;;9.65;100.00;95784.31;5028651;28;20112;-59
2022/05/04 04:39:59;;;;;;;3.58;3.30;;;;;;;9.62;100.00;95783.75;5030635;28;20500;-59
2022/05/04 04:42:24;;;;;;;3.75;3.47;;;;;;;9.62;100.00;95783.75;5032105;28;20404;-59
2022/05/04 04:44:49;;;;;;;3.97;3.67;;;;;;;9.63;100.00;95786.25;5032822;28;20057;-59
2022/05/04 04:47:15;;;;;;;3.97;3.70;;;;;;;9.65;100.00;95784.31;5032732;28;20033;-59
2022/05/04 04:49:40;;;;;;;3.88;3.67;;;;;;;9.66;100.00;95798.28;5032359;28;20060;-60
2022/05/04 04:52:06;;;;;;;5.45;3.28;;;;;;;9.68;100.00;95793.72;5030870;28;20026;-60
2022/05/04 04:54:31;;;;;;;3.90;3.45;;;;;;;9.69;100.00;95793.59;5032142;28;20036;-59
2022/05/04 04:56:57;;;;;;;3.45;3.25;;;;;;;9.70;100.00;95795.25;5032223;28;20117;-59
2022/05/04 04:59:22;;;;;;;5.85;3.80;;;;;;;9.77;100.00;95794.72;5032186;28;20053;-60
2022/05/04 05:01:47;;;;;;;3.90;3.60;;;;;;;9.80;100.00;95797.91;5032444;28;20045;-59
2022/05/04 05:04:13;;;;;;;4.13;3.83;;;;;;;9.79;100.00;95790.16;5032190;28;20048;-59
2022/05/04 05:06:38;;;;;;;3.35;3.15;;;;;;;9.80;99.76;95803.16;5031889;28;20053;-59
2022/05/04 05:09:03;;;;;;;4.00;3.75;;;;;;;9.85;99.81;95794.88;5031821;28;20037;-60
2022/05/04 05:11:29;;;;;;;3.70;3.40;;;;;;;9.87;99.60;95795.59;5032010;28;20400;-59
2022/05/04 05:16:38;;;;;;;3.88;3.58;;;;;;;9.97;98.09;95801.69;5030422;28;20523;-59
2022/05/04 05:19:04;;;;;;;3.50;3.30;;;;;;;9.93;98.77;95805.56;5030005;28;20097;-59
2022/05/04 05:21:29;;;;;;;3.75;3.45;;;;;;;9.92;99.25;95806.53;5030038;28;20022;-59
2022/05/04 05:23:55;;;;;;;3.60;3.38;;;;;;;9.95;98.72;95811.50;5031060;28;20045;-60
2022/05/04 05:26:20;;;;;;;3.17;2.97;;;;;;;9.99;97.60;95807.63;5032054;28;20022;-60
2022/05/04 05:28:47;;;;;;;5.45;3.80;;;;;;;9.96;97.94;95802.66;5031539;28;20107;-59
2022/05/04 05:31:13;;;;;;;4.25;3.85;;;;;;;9.96;98.52;95810.53;5031623;28;20072;-59
2022/05/04 05:33:39;;;;;;;3.88;3.47;;;;;;;9.99;98.66;95807.63;5031457;28;20048;-59
2022/05/04 05:36:05;;;;;;;4.03;3.45;;;;;;;10.09;99.29;95822.63;5031586;28;20602;-59
2022/05/04 05:38:30;;;;;;;3.85;3.58;;;;;;;10.17;99.37;95828.88;5031488;28;20029;-60
2022/05/04 05:40:55;;;;;;;3.92;3.60;;;;;;;10.24;97.42;95821.25;5031476;28;20049;-58
2022/05/04 05:43:21;;;;;;;3.53;3.33;;;;;;;10.37;97.98;95820.16;5031825;28;20127;-59
2022/05/04 05:45:46;;;;;;;4.25;3.50;;;;;;;10.54;96.50;95816.03;5031301;28;20037;-59
2022/05/04 05:48:11;;;;;;;3.67;3.38;;;;;;;10.46;97.17;95820.19;5030789;28;20034;-59
2022/05/04 05:50:37;;;;;;;3.47;3.28;;;;;;;10.49;98.17;95818.25;5031292;28;20053;-59
2022/05/04 05:53:03;;;;;;;4.05;3.38;;;;;;;10.62;98.57;95815.34;5026000;28;20029;-59
2022/05/04 05:55:29;;;;;;;3.75;3.40;;;;;;;10.72;94.03;95814.38;5011290;28;20060;-59
2022/05/04 05:57:55;;;;;;;3.80;3.50;;;;;;;10.72;93.74;95818.78;5011122;28;20033;-59
2022/05/04 06:00:21;;;;;;;3.55;3.35;;;;;;;10.81;94.02;95817.13;5011722;28;20033;-59
2022/05/04 06:02:46;;;;;;;4.47;3.42;;;;;;;10.81;95.05;95814.47;5029154;28;20565;-59
2022/05/04 06:05:12;;;;;;;3.95;3.35;;;;;;;10.84;95.19;95812.41;5027938;28;20021;-59
2022/05/04 06:07:38;;;;;;;5.95;3.35;;;;;;;10.86;93.97;95815.72;5029210;28;20064;-59
2022/05/04 06:10:05;;;;;;;4.32;3.92;;;;;;;10.92;92.85;95814.34;5027963;28;20487;-59
2022/05/04 06:12:31;;;;;;;3.70;3.40;;;;;;;10.99;92.14;95804.09;5030714;28;20087;-59
2022/05/04 06:14:56;;;;;;;3.90;3.60;;;;;;;11.19;90.83;95794.31;5030718;28;20439;-59
2022/05/04 06:17:21;;;;;;;3.65;3.30;;;;;;;11.33;90.91;95795.66;5030714;28;20451;-59
2022/05/04 06:19:47;;;;;;;3.92;3.60;;;;;;;11.78;90.06;95809.91;5030528;28;20060;-59
2022/05/04 06:22:13;;;;;;;3.03;2.83;;;;;;;12.31;87.10;95805.75;5030410;28;20035;-58
2022/05/04 06:24:38;;;;;;;3.30;2.90;;;;;;;12.67;85.47;95802.25;5030648;28;20060;-59
2022/05/04 06:27:04;;;;;;;3.15;2.97;;;;;;;12.96;83.87;95802.97;5029924;28;20532;-60
2022/05/04 06:35:02;;;;;;;2.95;2.75;;;;;;;13.53;77.68;95809.63;5050415;28;20032;-58
2022/05/04 06:37:27;;;;;;;2.65;2.50;;;;;;;13.57;77.64;95805.69;5050308;28;20033;-60
2022/05/04 06:39:53;;;;;;;2.75;2.65;;;;;;;13.92;74.81;95817.09;5042642;28;20024;-60
2022/05/04 06:42:18;;;;;;;3.10;2.90;;;;;;;14.20;73.74;95814.19;5028202;28;20083;-60
2022/05/04 06:44:43;;;;;;;2.80;2.65;;;;;;;14.33;74.48;95814.56;5028091;28;20542;-60
2022/05/04 06:47:09;;;;;;;3.70;2.92;;;;;;;14.65;73.27;95816.56;5028292;28;20057;-59
2022/05/04 06:49:34;;;;;;;3.20;3.00;;;;;;;14.89;72.08;95810.50;5028482;28;20026;-59
2022/05/04 06:51:59;;;;;;;2.92;2.75;;;;;;;15.17;69.16;95810.13;5026938;28;20064;-59
2022/05/04 06:54:25;;;;;;;2.88;2.75;;;;;;;15.90;66.98;95813.63;5029484;28;20037;-60
2022/05/04 06:56:50;;;;;;;2.70;2.60;;;;;;;16.09;66.14;95816.84;5029870;28;20041;-60
2022/05/04 06:59:15;;;;;;;2.78;2.58;;;;;;;16.22;63.23;95810.97;5028745;28;20050;-60
2022/05/04 07:01:41;;;;;;;3.42;3.15;;;;;;;16.44;64.75;95812.03;5029719;28;20062;-59
2022/05/04 07:04:08;;;;;;;3.75;2.95;;;;;;;16.60;61.14;95816.41;5029373;28;20493;-60
2022/05/04 07:06:33;;;;;;;2.75;2.55;;;;;;;16.71;60.56;95812.50;5029877;28;20064;-59
2022/05/04 07:08:58;;;;;;;3.63;2.75;;;;;;;17.14;60.76;95809.38;5030027;28;20083;-60
2022/05/04 07:11:24;;;;;;;5.32;3.40;;;;;;;17.51;60.41;95809.50;5029896;28;20080;-60
2022/05/04 07:13:49;;;;;;;2.53;2.42;;;;;;;17.88;59.48;95805.06;5029755;28;20116;-59
2022/05/04 07:16:15;;;;;;;2.55;2.35;;;;;;;17.92;60.00;95805.53;5029606;28;20392;-60
2022/05/04 07:18:40;;;;;;;2.38;2.17;;;;;;;18.28;59.16;95810.13;5029842;28;20078;-60
2022/05/04 07:21:05;;;;;;;3.25;2.67;;;;;;;18.14;56.17;95808.31;5028521;28;20748;-60
2022/05/04 07:23:31;;;;;;;2.63;2.28;;;;;;;18.74;56.88;95813.47;5029681;28;20531;-60
2022/05/04 07:25:57;;;;;;;2.88;2.67;;;;;;;19.10;52.98;95817.91;5029846;28;20562;-60
2022/05/04 07:28:22;;;;;;;4.32;3.28;;;;;;;18.62;55.19;95815.81;5029616;28;20021;-60
2022/05/04 07:30:47;;;;;;;3.47;3.25;;;;;;;19.04;54.13;95808.84;5029518;28;20037;-60
2022/05/04 07:33:13;;;;;;;4.00;2.80;;;;;;;19.06;52.08;95813.16;5029604;28;20559;-60
2022/05/04 07:35:38;;;;;;;3.22;2.92;;;;;;;18.94;52.44;95807.50;5029515;28;20033;-60
2022/05/04 07:38:04;;;;;;;3.13;2.60;;;;;;;18.75;52.82;95809.78;5029508;28;20411;-60
2022/05/04 07:43:13;;;;;;;2.88;2.40;;;;;;;17.98;55.41;95811.97;5029447;28;20113;-60
2022/05/04 07:45:38;;;;;;;2.72;2.50;;;;;;;17.47;57.16;95810.88;5029579;28;20108;-60
2022/05/04 07:48:04;;;;;;;2.83;2.63;;;;;;;17.12;58.61;95808.69;5029407;28;20483;-60
2022/05/04 07:50:29;;;;;;;4.75;2.60;;;;;;;18.14;57.64;95809.16;5029769;28;20037;-60
2022/05/04 07:52:55;;;;;;;2.83;2.55;;;;;;;18.61;54.37;95806.97;5029331;28;20021;-60
2022/05/04 07:55:20;;;;;;;3.92;2.70;;;;;;;18.88;54.18;95809.88;5029477;28;20030;-60
2022/05/04 07:57:48;;;;;;;2.95;2.75;;;;;;;18.82;52.97;95810.66;5029122;28;20072;-60
2022/05/04 08:05:43;;;;;;;2.22;2.13;;;;;;;17.88;54.72;95812.25;5029158;28;20076;-59
2022/05/04 08:08:09;;;;;;;4.43;2.08;;;;;;;18.16;54.37;95817.78;5029399;28;20022;-60
2022/05/04 08:10:35;;;;;;;3.70;3.05;;;;;;;17.95;55.55;95804.34;5029037;28;20026;-60
2022/05/04 08:13:00;;;;;;;4.93;2.58;;;;;;;18.64;52.67;95812.94;5029473;28;20045;-60
2022/05/04 08:15:26;;;;;;;2.22;2.10;;;;;;;18.99;48.63;95805.09;5031702;28;20526;-59
2022/05/04 08:17:52;;;;;;;2.60;2.40;;;;;;;18.74;51.15;95811.59;5032976;28;20468;-60
2022/05/04 08:20:17;;;;;;;2.42;2.22;;;;;;;18.83;50.36;95806.97;5032996;28;20100;-60
2022/05/04 08:22:43;;;;;;;2.55;2.25;;;;;;;19.55;48.47;95808.78;5033008;28;20025;-60
2022/05/04 08:25:09;;;;;;;2.45;2.25;;;;;;;19.68;48.41;95805.41;5033016;28;20137;-60
2022/05/04 08:27:34;;;;;;;2.42;2.22;;;;;;;19.62;47.43;95809.66;5032943;28;20029;-60
2022/05/04 08:30:00;;;;;;;2.95;2.65;;;;;;;18.98;50.02;95806.09;5033148;28;20029;-60
2022/05/04 08:32:29;;;;;;;2.33;2.13;;;;;;;19.00;50.61;95798.75;5032885;28;20030;-60
2022/05/04 08:34:54;;;;;;;2.40;2.20;;;;;;;19.56;48.23;95805.94;5032833;28;20455;-60
2022/05/04 08:37:20;;;;;;;3.38;2.25;;;;;;;19.85;46.83;95804.03;5032585;28;20098;-60
2022/05/04 08:39:45;;;;;;;2.42;2.33;;;;;;;20.13;45.45;95800.50;5032567;28;20160;-60
2022/05/04 08:42:13;;;;;;;2.72;2.30;;;;;;;19.76;47.25;95806.03;5032740;28;20053;-60
2022/05/04 08:44:40;;;;;;;1.83;1.75;;;;;;;20.34;44.12;95798.72;5032600;28;20022;-60
2022/05/04 08:47:12;;;;;;;1.80;1.70;;;;;;;19.48;45.49;95806.09;5032586;28;20013;-60
2022/05/04 08:49:40;;;;;;;3.90;1.92;;;;;;;18.83;48.24;95801.63;5032531;28;20018;-60
2022/05/04 08:52:06;;;;;;;2.00;1.90;;;;;;;20.14;45.45;95793.28;5032504;28;20029;-59
2022/05/04 08:54:31;;;;;;;2.22;2.10;;;;;;;20.17;45.39;95795.56;5032439;28;20032;-59
2022/05/04 08:56:59;;;;;;;3.08;2.25;;;;;;;20.53;43.82;95790.94;5032306;28;20079;-59
2022/05/04 08:59:25;;;;;;;3.22;2.08;;;;;;;20.37;44.56;95794.81;5032281;28;20119;-60
2022/05/04 09:01:51;;;;;;;1.98;1.88;;;;;;;20.82;44.36;95787.09;5032328;28;20080;-59
2022/05/04 09:04:16;;;;;;;2.05;1.95;;;;;;;21.20;41.06;95779.50;5032227;28;20017;-59
2022/05/04 09:06:46;;;;;;;2.08;1.90;;;;;;;21.31;41.47;95782.38;5032124;28;20037;-59
2022/05/04 09:09:11;;;;;;;2.05;1.65;;;;;;;21.01;42.26;95781.97;5032186;28;20029;-59
2022/05/04 09:11:38;;;;;;;1.73;1.63;;;;;;;21.11;40.52;95785.09;5032095;28;20095;-59
2022/05/04 09:14:09;;;;;;;1.75;1.70;;;;;;;21.06;42.13;95779.50;5032238;28;20030;-59
2022/05/04 09:16:34;;;;;;;2.15;2.05;;;;;;;21.24;41.98;95775.38;5032200;28;20030;-59
2022/05/04 09:19:05;;;;;;;2.95;1.75;;;;;;;21.68;40.11;95771.22;5032006;28;20026;-59
2022/05/04 09:21:30;;;;;;;2.05;1.95;;;;;;;21.45;41.71;95767.13;5032103;28;20033;-59
2022/05/04 09:23:56;;;;;;;1.90;1.80;;;;;;;20.91;43.23;95762.84;5031773;28;20044;-59
2022/05/04 09:26:22;;;;;;;1.83;1.73;;;;;;;20.95;41.81;95761.41;5031399;28;20041;-59
2022/05/04 09:28:51;;;;;;;1.73;1.63;;;;;;;20.93;41.37;95760.78;5031846;28;20030;-59
2022/05/04 09:31:18;;;;;;;1.73;1.63;;;;;;;21.05;42.72;95767.16;5031906;28;20095;-58
2022/05/04 09:33:51;;;;;;;1.92;1.83;;;;;;;21.22;42.85;95761.38;5031690;28;20026;-59
2022/05/04 09:36:28;;;;;;;1.83;1.73;;;;;;;21.60;39.95;95763.38;5031494;28;20034;-59
2022/05/04 09:47:27;;;;;;;3.20;2.03;;;;;;;20.14;42.47;95758.56;4989782;28;20038;-58
2022/05/04 09:50:03;;;;;;;1.95;1.85;;;;;;;20.67;41.89;95752.50;5022956;28;20042;-59
2022/05/04 09:52:28;;;;;;;4.43;2.13;;;;;;;21.26;41.95;95750.06;5031495;28;20025;-59
2022/05/04 09:54:54;;;;;;;2.20;2.10;;;;;;;21.35;39.51;95753.34;5031325;28;20017;-59
2022/05/04 09:57:20;;;;;;;1.80;1.70;;;;;;;21.48;40.44;95747.13;5031298;28;20029;-57
2022/05/04 09:59:47;;;;;;;1.98;1.88;;;;;;;21.97;39.39;95749.47;5031140;28;20045;-58
2022/05/04 10:02:13;;;;;;;1.50;1.45;;;;;;;21.86;39.33;95746.41;5031113;28;20045;-59
2022/05/04 10:04:39;;;;;;;1.60;1.60;;;;;;;21.77;40.22;95753.06;5031093;28;20041;-59
2022/05/04 10:07:05;;;;;;;2.63;1.88;;;;;;;22.25;39.06;95748.31;5031369;28;20083;-58
2022/05/04 10:09:30;;;;;;;4.43;1.85;;;;;;;22.19;39.54;95749.97;5031166;28;20114;-59
2022/05/04 10:11:59;;;;;;;1.77;1.63;;;;;;;22.52;37.23;95748.19;5031057;28;20501;-59
2022/05/04 10:14:27;;;;;;;1.40;1.38;;;;;;;22.25;34.54;95749.16;5031049;28;20025;-58
2022/05/04 10:16:52;;;;;;;1.70;1.60;;;;;;;22.36;37.18;95746.81;5030775;28;20025;-58
2022/05/04 10:19:36;;;;;;;2.03;1.88;;;;;;;22.49;35.78;95748.63;5030842;28;20022;-58
2022/05/04 10:22:08;;;;;;;3.83;1.85;;;;;;;22.79;35.76;95750.72;5030676;28;20407;-58
2022/05/04 10:24:35;;;;;;;2.20;1.90;;;;;;;22.68;35.48;95752.22;5031009;28;20036;-58
2022/05/04 10:27:17;;;;;;;1.88;1.40;;;;;;;22.66;32.94;95751.59;5030693;28;20519;-57
2022/05/04 10:32:37;;;;;;;1.67;1.58;;;;;;;22.68;35.66;95746.88;5030641;28;20029;-59
2022/05/04 10:35:22;;;;;;;1.55;1.55;;;;;;;22.72;35.61;95745.38;5030588;28;20033;-58
2022/05/04 10:38:04;;;;;;;1.73;1.63;;;;;;;22.98;35.94;95744.34;5029446;28;20428;-58
2022/05/04 10:40:36;;;;;;;2.10;1.83;;;;;;;23.33;35.48;95748.44;5030613;28;20044;-59
2022/05/04 10:43:09;;;;;;;2.00;1.90;;;;;;;23.00;36.09;95742.28;5030580;28;20215;-58
2022/05/04 10:45:37;;;;;;;1.60;1.60;;;;;;;23.11;37.16;95743.44;5030628;28;20026;-58
2022/05/04 10:48:20;;;;;;;1.40;1.40;;;;;;;23.49;36.46;95738.97;5030458;28;20056;-58
2022/05/04 10:50:55;;;;;;;1.70;1.60;;;;;;;23.46;32.75;95734.84;5030101;28;20056;-59
2022/05/04 10:53:24;;;;;;;1.50;1.50;;;;;;;23.36;32.61;95733.72;5030328;28;20104;-59
2022/05/04 10:56:01;;;;;;;4.07;1.70;;;;;;;23.77;33.20;95734.13;5030162;28;20037;-59
2022/05/04 10:58:33;;;;;;;1.80;1.67;;;;;;;23.35;34.43;95727.53;5030074;28;20061;-60
2022/05/04 11:01:20;;;;;;;1.83;1.67;;;;;;;23.70;32.32;95728.81;5030006;28;20400;-60
2022/05/04 11:03:56;;;;;;;1.63;1.58;;;;;;;23.97;33.81;95720.44;5029910;28;20029;-58
2022/05/04 11:06:23;;;;;;;1.50;1.50;;;;;;;24.23;31.18;95716.63;5030174;28;20029;-58
2022/05/04 11:08:49;;;;;;;1.77;1.67;;;;;;;24.34;33.07;95715.00;5029846;28;20022;-58
2022/05/04 11:11:15;;;;;;;3.55;2.10;;;;;;;23.86;32.25;95719.31;5029895;28;20029;-59
2022/05/04 11:13:43;;;;;;;1.77;1.67;;;;;;;23.33;33.30;95716.19;5029839;28;20017;-59
2022/05/04 11:16:09;;;;;;;2.28;1.80;;;;;;;23.63;31.20;95714.63;5030021;28;20455;-59
2022/05/04 11:18:35;;;;;;;1.85;1.75;;;;;;;24.06;32.00;95719.09;5029840;28;20387;-58
2022/05/04 11:21:09;;;;;;;1.63;1.63;;;;;;;24.55;29.67;95708.28;5029766;28;20128;-58
2022/05/04 11:23:37;;;;;;;1.85;1.75;;;;;;;24.55;29.89;95708.28;5029887;28;20080;-58
2022/05/04 11:26:02;;;;;;;1.52;1.48;;;;;;;25.12;26.86;95700.75;5029563;28;20593;-59
2022/05/04 11:28:28;;;;;;;1.70;1.60;;;;;;;24.51;28.18;95712.47;5029693;28;20100;-59
2022/05/04 11:30:53;;;;;;;1.50;1.40;;;;;;;24.45;28.79;95708.03;5029571;28;20075;-59
2022/05/04 11:33:19;;;;;;;4.43;1.50;;;;;;;24.68;28.40;95690.28;5029671;28;20029;-58
2022/05/04 11:35:52;;;;;;;1.70;1.60;;;;;;;24.82;26.77;95697.13;5029654;28;20033;-59
2022/05/04 11:38:18;;;;;;;1.52;1.48;;;;;;;24.11;28.42;95692.38;5029218;28;20076;-58
2022/05/04 11:40:46;;;;;;;1.88;1.75;;;;;;;22.78;31.10;95695.41;5029604;28;20034;-58
2022/05/04 11:43:41;;;;;;;2.25;1.90;;;;;;;22.39;31.62;95698.09;5029557;28;20112;-59
2022/05/04 11:46:11;;;;;;;1.80;1.70;;;;;;;22.52;32.50;95692.69;5016301;28;20040;-58
2022/05/04 11:48:38;;;;;;;2.55;1.90;;;;;;;23.26;30.75;95686.72;5031727;28;20404;-58
2022/05/04 11:51:05;;;;;;;1.77;1.65;;;;;;;23.96;30.98;95681.97;5036104;28;20076;-58
2022/05/04 11:53:31;;;;;;;1.77;1.67;;;;;;;24.09;28.54;95681.00;5035947;28;20392;-59
2022/05/04 11:55:58;;;;;;;1.70;1.60;;;;;;;23.94;30.36;95670.63;5035898;28;20033;-58
2022/05/04 11:58:26;;;;;;;1.88;1.77;;;;;;;24.30;29.25;95671.59;5035787;28;20057;-57
2022/05/04 12:00:51;;;;;;;1.67;1.60;;;;;;;24.60;28.79;95670.72;5035895;28;20037;-58
2022/05/04 12:03:18;;;;;;;1.50;1.50;;;;;;;24.99;29.42;95664.97;5035969;28;20040;-58
2022/05/04 12:05:44;;;;;;;2.33;1.70;;;;;;;25.42;26.58;95667.47;5035968;28;20025;-59
2022/05/04 12:08:10;;;;;;;3.95;1.73;;;;;;;25.23;26.61;95664.09;5036119;28;20108;-59
2022/05/04 12:10:36;;;;;;;3.33;1.67;;;;;;;25.34;28.19;95663.28;5035887;28;20029;-59